Terminal Aerodrome Forecast
Issued by NWS Bismarck, ND

Home | Current Version | Previous Version | Graphics & Text | Print | Product List | Glossary On
Versions: 1 2 3 4 5 6 7 8 9 10 11 12 13 14 15
000
FTUS43 KBIS 012327
TAFBIS
TAF
KBIS 012327Z 0200/0224 24012G19KT P6SM SCT200
     FM020100 20006KT P6SM SCT180
     FM021600 23014G22KT P6SM SCT120=

USA.gov is the U.S. government's official web portal to all federal, state and local government web resources and services.